AIC4CT VABB-VIDP
Flight info
| Callsign | AIC4CT |
|---|---|
| Flight time | N/A |
| Altitude | 35000 |
| Route | ALBAP2B ISRIS Q1 UKASO UKASO6C |
| Aircraft | A321/M-SDE3FGHIRWY/LB1 |
Departure
| Time | 2026-04-29 03:18 |
|---|---|
| Airport | Chhatrapati Shivaji Maharaj International Airport (VABB) |
Arrival
| Time | N/A |
|---|---|
| Airport | Indira Gandhi International Airport (VIDP) |
| Time | Latitude | Longitude | Altitude | Speed | Heading |
|---|---|---|---|---|---|
| 2026-04-29 03:03 | 19.09487 | 72.87719 | 40 ft | 0 kts | 313° |
| 2026-04-29 03:10 | 19.09485 | 72.87722 | 39 ft | 2 kts | 313° |
| 2026-04-29 03:10 | 19.09475 | 72.87734 | 39 ft | 2 kts | 313° |
| 2026-04-29 03:10 | 19.09464 | 72.87746 | 38 ft | 2 kts | 313° |
| 2026-04-29 03:11 | 19.09454 | 72.87757 | 37 ft | 2 kts | 313° |
| 2026-04-29 03:11 | 19.09443 | 72.87769 | 36 ft | 2 kts | 313° |
| 2026-04-29 03:11 | 19.09435 | 72.87776 | 36 ft | 1 kts | 356° |
| 2026-04-29 03:11 | 19.09427 | 72.87774 | 36 ft | 0 kts | 40° |
| 2026-04-29 03:12 | 19.09423 | 72.87770 | 36 ft | 0 kts | 34° |
| 2026-04-29 03:13 | 19.09424 | 72.87772 | 36 ft | 0 kts | 34° |
| 2026-04-29 03:13 | 19.09427 | 72.87774 | 36 ft | 0 kts | 34° |
| 2026-04-29 03:14 | 19.09439 | 72.87782 | 36 ft | 3 kts | 34° |
| 2026-04-29 03:14 | 19.09467 | 72.87802 | 36 ft | 5 kts | 33° |
| 2026-04-29 03:14 | 19.09491 | 72.87802 | 37 ft | 3 kts | 246° |
| 2026-04-29 03:14 | 19.09448 | 72.87777 | 36 ft | 9 kts | 202° |
| 2026-04-29 03:15 | 19.09368 | 72.87753 | 34 ft | 15 kts | 185° |
| 2026-04-29 03:15 | 19.09241 | 72.87759 | 30 ft | 20 kts | 177° |
| 2026-04-29 03:15 | 19.09140 | 72.87783 | 31 ft | 13 kts | 145° |
| 2026-04-29 03:15 | 19.09056 | 72.87811 | 33 ft | 12 kts | 182° |
| 2026-04-29 03:16 | 19.08996 | 72.87808 | 34 ft | 0 kts | 182° |
| 2026-04-29 03:16 | 19.08993 | 72.87808 | 34 ft | 1 kts | 182° |
| 2026-04-29 03:16 | 19.08969 | 72.87807 | 34 ft | 5 kts | 182° |
| 2026-04-29 03:17 | 19.08914 | 72.87805 | 34 ft | 10 kts | 185° |
| 2026-04-29 03:17 | 19.08884 | 72.87732 | 33 ft | 15 kts | 270° |
| 2026-04-29 03:17 | 19.08880 | 72.87420 | 27 ft | 79 kts | 269° |
| 2026-04-29 03:17 | 19.08868 | 72.86603 | 33 ft | 143 kts | 269° |
| 2026-04-29 03:18 | 19.08853 | 72.85364 | 161 ft | 183 kts | 269° |
| 2026-04-29 03:18 | 19.08845 | 72.83969 | 716 ft | 193 kts | 269° |
| 2026-04-29 03:18 | 19.08840 | 72.82626 | 1626 ft | 184 kts | 269° |
| 2026-04-29 03:18 | 19.08824 | 72.81255 | 2133 ft | 193 kts | 269° |
| 2026-04-29 03:19 | 19.08798 | 72.79786 | 2415 ft | 208 kts | 269° |
| 2026-04-29 03:19 | 19.08770 | 72.78207 | 2777 ft | 220 kts | 269° |
| 2026-04-29 03:19 | 19.08746 | 72.76513 | 3060 ft | 238 kts | 269° |
| 2026-04-29 03:19 | 19.08757 | 72.74705 | 3387 ft | 255 kts | 275° |
| 2026-04-29 03:20 | 19.09337 | 72.72900 | 3673 ft | 271 kts | 307° |
| 2026-04-29 03:20 | 19.10789 | 72.71637 | 4186 ft | 276 kts | 338° |
| 2026-04-29 03:20 | 19.12661 | 72.71333 | 4866 ft | 276 kts | 9° |
| 2026-04-29 03:20 | 19.14394 | 72.72053 | 5534 ft | 276 kts | 38° |
| 2026-04-29 03:21 | 19.15833 | 72.73387 | 6244 ft | 277 kts | 39° |
| 2026-04-29 03:21 | 19.17535 | 72.74345 | 6872 ft | 283 kts | 12° |
| 2026-04-29 03:21 | 19.19495 | 72.74464 | 7599 ft | 285 kts | 360° |
| 2026-04-29 03:21 | 19.21468 | 72.74399 | 8306 ft | 288 kts | 358° |
| 2026-04-29 03:22 | 19.23470 | 72.74296 | 9004 ft | 291 kts | 358° |
| 2026-04-29 03:22 | 19.25501 | 72.74181 | 9540 ft | 294 kts | 357° |
| 2026-04-29 03:22 | 19.27555 | 72.74066 | 9796 ft | 295 kts | 358° |
| 2026-04-29 03:22 | 19.29574 | 72.74043 | 9818 ft | 294 kts | 2° |
| 2026-04-29 03:23 | 19.31631 | 72.74178 | 9877 ft | 298 kts | 6° |
| 2026-04-29 03:23 | 19.33724 | 72.74466 | 10213 ft | 310 kts | 8° |
| 2026-04-29 03:23 | 19.35884 | 72.74802 | 10505 ft | 327 kts | 9° |
| 2026-04-29 03:23 | 19.38181 | 72.75163 | 10789 ft | 343 kts | 9° |
| 2026-04-29 03:24 | 19.40588 | 72.75538 | 11173 ft | 354 kts | 9° |
| 2026-04-29 03:24 | 19.43042 | 72.75919 | 11788 ft | 358 kts | 8° |
| 2026-04-29 03:24 | 19.45475 | 72.76294 | 12426 ft | 360 kts | 8° |
| 2026-04-29 03:24 | 19.47963 | 72.76677 | 13041 ft | 363 kts | 8° |
| 2026-04-29 03:25 | 19.50477 | 72.77063 | 13640 ft | 367 kts | 8° |
| 2026-04-29 03:25 | 19.52993 | 72.77451 | 14228 ft | 370 kts | 9° |
| 2026-04-29 03:25 | 19.55519 | 72.77839 | 14805 ft | 373 kts | 9° |
| 2026-04-29 03:25 | 19.58116 | 72.78239 | 15383 ft | 376 kts | 9° |
| 2026-04-29 03:26 | 19.60721 | 72.78639 | 15949 ft | 380 kts | 9° |
| 2026-04-29 03:26 | 19.63319 | 72.79039 | 16498 ft | 383 kts | 9° |
| 2026-04-29 03:26 | 19.65974 | 72.79448 | 17045 ft | 386 kts | 9° |
| 2026-04-29 03:26 | 19.68624 | 72.79856 | 17576 ft | 389 kts | 9° |
| 2026-04-29 03:27 | 19.71338 | 72.80274 | 18102 ft | 392 kts | 9° |
| 2026-04-29 03:27 | 19.74038 | 72.80690 | 18608 ft | 395 kts | 9° |
| 2026-04-29 03:27 | 19.76740 | 72.81107 | 19097 ft | 398 kts | 9° |